createdAt,value
2023-04-01T00:01:22.802Z,99299.86
2023-04-01T00:03:51.537Z,99299.25
2023-04-01T00:06:20.185Z,99297.04
2023-04-01T00:08:48.526Z,99295.71
2023-04-01T00:11:16.908Z,99300.29
2023-04-01T00:13:45.484Z,99302.44
2023-04-01T00:16:21.752Z,99305.48
2023-04-01T00:18:51.753Z,99305.11
2023-04-01T00:21:20.194Z,99302.33
2023-04-01T00:23:52.093Z,99298.89
2023-04-01T00:26:22.878Z,99300.57
2023-04-01T00:28:51.327Z,99301.73
2023-04-01T00:31:19.699Z,99296.25
2023-04-01T00:33:49.252Z,99298.59
2023-04-01T00:36:18.394Z,99302.34
2023-04-01T00:38:48.023Z,99296.23
2023-04-01T00:41:16.987Z,99295.70
2023-04-01T00:43:47.073Z,99296.16
2023-04-01T00:46:15.664Z,99291.14
2023-04-01T00:48:51.653Z,99291.45
2023-04-01T00:51:21.379Z,99291.04
2023-04-01T00:53:52.333Z,99296.91
2023-04-01T00:56:36.829Z,99296.67
2023-04-01T00:59:06.894Z,99290.36
2023-04-01T01:01:36.162Z,99288.02
2023-04-01T01:04:05.588Z,99287.92
2023-04-01T01:06:40.717Z,99288.85
2023-04-01T01:09:27.860Z,99289.07
2023-04-01T01:11:59.014Z,99286.70
2023-04-01T01:14:40.861Z,99289.54
2023-04-01T01:17:08.940Z,99291.54
2023-04-01T01:19:39.964Z,99287.50
2023-04-01T01:22:34.108Z,99292.16
2023-04-01T01:25:08.308Z,99291.52
2023-04-01T01:27:37.608Z,99288.80
2023-04-01T01:30:25.516Z,99289.58
2023-04-01T01:33:00.700Z,99292.27
2023-04-01T01:35:33.070Z,99295.90
2023-04-01T01:38:06.733Z,99297.06
2023-04-01T01:40:35.665Z,99298.57
2023-04-01T01:43:05.836Z,99301.48
2023-04-01T01:45:34.675Z,99301.74
2023-04-01T01:48:03.740Z,99310.89
2023-04-01T01:50:32.146Z,99311.14
2023-04-01T01:53:01.944Z,99309.48
2023-04-01T01:55:35.725Z,99314.33
2023-04-01T01:58:06.684Z,99318.59
2023-04-01T02:00:39.325Z,99315.91
2023-04-01T02:03:07.747Z,99319.89
2023-04-01T02:05:36.236Z,99320.19
2023-04-01T02:08:12.269Z,99318.14
2023-04-01T02:10:41.573Z,99318.48
2023-04-01T02:13:21.005Z,99317.43
2023-04-01T02:15:49.725Z,99318.09
2023-04-01T02:18:18.384Z,99319.98
2023-04-01T02:20:52.864Z,99320.29
2023-04-01T02:23:22.201Z,99317.15
2023-04-01T02:25:52.323Z,99316.36
2023-04-01T02:28:21.623Z,99311.65
2023-04-01T02:30:51.339Z,99311.98
2023-04-01T02:33:22.548Z,99311.93
2023-04-01T02:35:51.890Z,99308.55
2023-04-01T02:38:20.551Z,99310.04
2023-04-01T02:40:50.768Z,99308.06
2023-04-01T02:43:20.067Z,99306.48
2023-04-01T02:45:53.060Z,99308.52
2023-04-01T02:48:21.453Z,99313.19
2023-04-01T02:50:49.749Z,99312.77
2023-04-01T02:53:18.831Z,99314.28
2023-04-01T02:55:47.182Z,99314.41
2023-04-01T02:58:19.509Z,99311.40
2023-04-01T03:00:47.664Z,99309.77
2023-04-01T03:03:16.836Z,99308.88
2023-04-01T03:05:50.517Z,99308.16
2023-04-01T03:08:18.834Z,99310.53
2023-04-01T03:10:47.348Z,99309.34
2023-04-01T03:13:19.344Z,99310.46
2023-04-01T03:15:47.634Z,99314.59
2023-04-01T03:18:17.232Z,99315.54
2023-04-01T03:20:48.244Z,99312.30
2023-04-01T03:23:18.415Z,99313.42
2023-04-01T03:25:46.653Z,99316.52
2023-04-01T03:28:15.732Z,99315.83
2023-04-01T03:30:44.542Z,99314.52
2023-04-01T03:33:14.832Z,99315.21
2023-04-01T03:35:43.533Z,99321.48
2023-04-01T03:38:11.641Z,99317.79
2023-04-01T03:40:43.355Z,99323.17
2023-04-01T03:43:11.940Z,99326.78
2023-04-01T03:45:50.080Z,99328.42
2023-04-01T03:48:18.953Z,99329.59
2023-04-01T03:50:47.297Z,99330.61
2023-04-01T03:53:16.573Z,99332.83
2023-04-01T03:55:45.072Z,99334.98
2023-04-01T03:58:13.587Z,99337.06
2023-04-01T04:00:44.739Z,99340.58
2023-04-01T04:03:19.452Z,99341.94
2023-04-01T04:05:48.571Z,99339.50
2023-04-01T04:08:18.150Z,99338.94
2023-04-01T04:10:47.568Z,99342.52
2023-04-01T04:13:21.340Z,99345.60
2023-04-01T04:15:52.356Z,99348.85
2023-04-01T04:18:20.524Z,99351.66
2023-04-01T04:20:51.273Z,99356.46
2023-04-01T04:23:20.030Z,99357.23
2023-04-01T04:25:55.542Z,99361.79
2023-04-01T04:28:24.255Z,99368.73
2023-04-01T04:30:53.372Z,99373.37
2023-04-01T04:33:24.531Z,99377.89
2023-04-01T04:35:52.750Z,99372.52
2023-04-01T04:38:22.598Z,99367.31
2023-04-01T04:40:51.498Z,99364.02
2023-04-01T04:43:19.843Z,99363.97
2023-04-01T04:45:47.977Z,99363.86
2023-04-01T04:48:19.925Z,99356.23
2023-04-01T04:50:49.636Z,99356.18
2023-04-01T04:53:18.981Z,99351.92
2023-04-01T04:55:51.615Z,99349.74
2023-04-01T04:58:43.016Z,99349.60
2023-04-01T05:01:12.927Z,99346.46
2023-04-01T05:03:41.505Z,99346.67
2023-04-01T05:06:10.454Z,99343.65
2023-04-01T05:08:39.902Z,99344.85
2023-04-01T05:13:39.599Z,99354.79
2023-04-01T05:16:11.288Z,99354.94
2023-04-01T05:18:42.156Z,99354.91
2023-04-01T05:21:11.536Z,99351.02
2023-04-01T05:23:41.752Z,99350.15
2023-04-01T05:26:10.902Z,99342.56
2023-04-01T05:28:39.445Z,99344.00
2023-04-01T05:31:08.180Z,99348.66
2023-04-01T05:33:40.245Z,99343.24
2023-04-01T05:36:12.131Z,99349.73
2023-04-01T05:38:40.853Z,99357.58
2023-04-01T05:41:11.243Z,99355.24
2023-04-01T05:43:43.413Z,99355.02
2023-04-01T05:46:30.427Z,99354.23
2023-04-01T05:49:05.467Z,99357.94
2023-04-01T05:51:33.784Z,99363.46
2023-04-01T05:54:02.365Z,99355.19
2023-04-01T05:56:30.658Z,99357.58
2023-04-01T05:58:58.776Z,99364.94
2023-04-01T06:01:27.845Z,99366.91
2023-04-01T06:03:57.308Z,99369.67
2023-04-01T06:06:28.664Z,99376.05
2023-04-01T06:09:06.336Z,99372.23
2023-04-01T06:11:41.761Z,99374.18
2023-04-01T06:14:18.571Z,99369.79
2023-04-01T06:17:07.209Z,99375.23
2023-04-01T06:19:38.467Z,99378.31
2023-04-01T06:22:19.149Z,99379.59
2023-04-01T06:24:53.256Z,99377.90
2023-04-01T06:27:27.536Z,99378.05
2023-04-01T06:30:00.435Z,99377.52
2023-04-01T06:32:32.246Z,99384.38
2023-04-01T06:35:19.616Z,99378.91
2023-04-01T06:37:51.897Z,99376.54
2023-04-01T06:40:20.227Z,99371.50
2023-04-01T06:42:58.149Z,99374.27
2023-04-01T06:45:55.862Z,99367.31
2023-04-01T06:49:01.484Z,99367.55
2023-04-01T06:52:10.738Z,99364.33
2023-04-01T06:55:24.113Z,99369.29
2023-04-01T06:58:14.507Z,99371.11
2023-04-01T07:00:44.581Z,99365.50
2023-04-01T07:03:34.252Z,99365.89
2023-04-01T07:06:04.454Z,99365.67
2023-04-01T07:08:34.620Z,99371.15
2023-04-01T07:11:05.372Z,99376.33
2023-04-01T07:14:11.599Z,99374.25
2023-04-01T07:16:51.469Z,99375.84
2023-04-01T07:19:19.675Z,99381.79
2023-04-01T07:22:21.010Z,99387.98
2023-04-01T07:25:26.304Z,99387.08
2023-04-01T07:28:17.539Z,99381.77
2023-04-01T07:30:48.421Z,99381.59
2023-04-01T07:33:21.667Z,99375.90
2023-04-01T07:35:59.043Z,99371.31
2023-04-01T07:38:43.606Z,99380.80
2023-04-01T07:41:23.279Z,99381.38
2023-04-01T07:44:05.094Z,99378.94
2023-04-01T07:46:47.007Z,99379.77
2023-04-01T07:49:18.841Z,99374.27
2023-04-01T07:51:59.922Z,99373.91
2023-04-01T07:54:46.253Z,99371.72
2023-04-01T07:57:23.061Z,99367.55
2023-04-01T08:00:01.900Z,99367.81
2023-04-01T08:03:18.459Z,99364.01
2023-04-01T08:05:46.827Z,99367.23
2023-04-01T08:08:20.939Z,99370.33
2023-04-01T08:11:24.972Z,99375.24
2023-04-01T08:14:17.530Z,99387.41
2023-04-01T08:17:10.414Z,99391.91
2023-04-01T08:19:53.241Z,99398.67
2023-04-01T08:22:28.771Z,99399.89
2023-04-01T08:25:01.058Z,99404.34
2023-04-01T08:27:34.562Z,99405.48
2023-04-01T08:30:10.072Z,99407.45
2023-04-01T08:32:41.222Z,99414.58
2023-04-01T08:35:19.371Z,99418.64
2023-04-01T08:37:49.173Z,99415.43
2023-04-01T08:40:28.382Z,99414.24
2023-04-01T08:43:20.700Z,99408.39
2023-04-01T08:46:03.931Z,99412.54
2023-04-01T08:48:35.271Z,99405.51
2023-04-01T08:51:08.429Z,99402.20
2023-04-01T08:53:58.852Z,99397.80
2023-04-01T08:56:46.707Z,99395.37
2023-04-01T08:59:36.515Z,99392.41
2023-04-01T09:02:20.902Z,99386.92
2023-04-01T09:05:12.269Z,99392.95
2023-04-01T09:08:04.595Z,99389.30
2023-04-01T09:10:33.512Z,99389.42
2023-04-01T09:13:08.747Z,99396.36
2023-04-01T09:15:38.585Z,99404.73
2023-04-01T09:18:16.347Z,99398.39
2023-04-01T09:20:51.178Z,99397.48
2023-04-01T09:23:38.995Z,99394.33
2023-04-01T09:26:10.100Z,99398.32
2023-04-01T09:28:51.954Z,99400.80
2023-04-01T09:31:39.351Z,99400.87
2023-04-01T09:35:01.803Z,99402.06
2023-04-01T09:37:42.085Z,99405.42
2023-04-01T09:40:13.382Z,99401.20
2023-04-01T09:43:02.313Z,99400.83
2023-04-01T09:45:37.686Z,99399.94
2023-04-01T09:48:26.249Z,99395.45
2023-04-01T09:51:11.059Z,99386.25
2023-04-01T09:53:49.977Z,99378.48
2023-04-01T09:56:21.194Z,99385.04
2023-04-01T09:59:08.255Z,99385.55
2023-04-01T10:02:14.287Z,99381.65
2023-04-01T10:04:57.555Z,99378.12
2023-04-01T10:07:58.421Z,99380.20
2023-04-01T10:10:46.587Z,99380.43
2023-04-01T10:13:33.879Z,99374.09
2023-04-01T10:16:21.081Z,99374.76
2023-04-01T10:18:49.203Z,99372.59
2023-04-01T10:21:19.102Z,99366.52
2023-04-01T10:23:51.604Z,99360.80
2023-04-01T10:26:35.579Z,99353.16
2023-04-01T10:29:48.222Z,99347.13
2023-04-01T10:32:32.063Z,99354.89
2023-04-01T10:35:19.198Z,99355.61
2023-04-01T10:37:59.432Z,99349.98
2023-04-01T10:40:39.989Z,99347.35
2023-04-01T10:43:58.529Z,99342.16
2023-04-01T10:46:46.343Z,99343.90
2023-04-01T10:49:18.038Z,99341.15
2023-04-01T10:51:49.329Z,99342.79
2023-04-01T10:54:45.094Z,99341.15
2023-04-01T10:58:04.592Z,99333.52
2023-04-01T11:00:54.036Z,99331.64
2023-04-01T11:03:56.232Z,99336.55
2023-04-01T11:07:09.280Z,99340.59
2023-04-01T11:09:37.955Z,99343.12
2023-04-01T11:12:06.198Z,99339.84
2023-04-01T11:14:53.832Z,99333.57
2023-04-01T11:17:34.937Z,99335.96
2023-04-01T11:20:20.846Z,99325.82
2023-04-01T11:22:52.119Z,99325.34
2023-04-01T11:25:26.885Z,99318.60
2023-04-01T11:28:33.825Z,99320.20
2023-04-01T11:31:07.025Z,99320.38
2023-04-01T11:33:36.967Z,99318.20
2023-04-01T11:36:14.327Z,99320.83
2023-04-01T11:39:01.568Z,99311.45
2023-04-01T11:41:48.100Z,99303.98
2023-04-01T11:44:41.325Z,99296.48
2023-04-01T11:47:35.422Z,99293.14
2023-04-01T11:50:22.254Z,99287.35
2023-04-01T11:52:58.415Z,99288.13
2023-04-01T11:55:29.682Z,99278.46
2023-04-01T11:57:57.964Z,99276.73
2023-04-01T12:00:44.846Z,99276.50
2023-04-01T12:03:46.690Z,99270.80
2023-04-01T12:06:14.877Z,99276.05
2023-04-01T12:08:55.801Z,99273.83
2023-04-01T12:11:43.024Z,99265.97
2023-04-01T12:14:14.246Z,99263.69
2023-04-01T12:16:44.641Z,99263.47
2023-04-01T12:19:19.087Z,99270.95
2023-04-01T12:22:13.754Z,99259.58
2023-04-01T12:24:46.685Z,99261.44
2023-04-01T12:27:20.866Z,99261.11
2023-04-01T12:30:11.537Z,99260.04
2023-04-01T12:33:10.101Z,99260.55
2023-04-01T12:35:54.034Z,99260.89
2023-04-01T12:38:33.704Z,99263.66
2023-04-01T12:41:13.758Z,99260.99
2023-04-01T12:43:47.878Z,99260.02
2023-04-01T12:46:16.247Z,99259.42
2023-04-01T12:48:54.890Z,99259.45
2023-04-01T12:51:30.336Z,99255.24
2023-04-01T12:54:08.196Z,99255.03
2023-04-01T12:56:40.358Z,99250.64
2023-04-01T12:59:14.588Z,99249.02
2023-04-01T13:02:01.330Z,99248.80
2023-04-01T13:04:45.424Z,99246.81
2023-04-01T13:07:22.630Z,99248.14
2023-04-01T13:10:14.254Z,99255.50
2023-04-01T13:12:42.436Z,99250.57
2023-04-01T13:15:14.480Z,99250.86
2023-04-01T13:17:46.062Z,99249.89
2023-04-01T13:20:17.223Z,99243.91
2023-04-01T13:22:51.718Z,99243.94
2023-04-01T13:25:26.104Z,99244.82
2023-04-01T13:28:13.002Z,99242.05
2023-04-01T13:30:47.060Z,99237.05
2023-04-01T13:33:22.040Z,99239.77
2023-04-01T13:35:53.205Z,99237.46
2023-04-01T13:38:21.713Z,99237.30
2023-04-01T13:41:02.359Z,99235.84
2023-04-01T13:43:43.438Z,99236.27
2023-04-01T13:46:32.172Z,99237.50
2023-04-01T13:49:03.263Z,99238.23
2023-04-01T13:51:53.353Z,99239.33
2023-04-01T13:54:33.117Z,99238.52
2023-04-01T13:57:16.473Z,99239.30
2023-04-01T14:00:25.159Z,99235.25
2023-04-01T14:03:12.074Z,99235.90
2023-04-01T14:05:49.424Z,99236.48
2023-04-01T14:08:45.753Z,99235.37
2023-04-01T14:11:17.076Z,99238.45
2023-04-01T14:13:57.088Z,99235.09
2023-04-01T14:16:33.474Z,99233.45
2023-04-01T14:19:01.815Z,99232.34
2023-04-01T14:21:35.985Z,99232.58
2023-04-01T14:24:10.856Z,99231.80
2023-04-01T14:26:58.052Z,99238.69
2023-04-01T14:29:49.246Z,99237.13
2023-04-01T14:32:36.427Z,99235.62
2023-04-01T14:35:07.851Z,99239.45
2023-04-01T14:37:37.135Z,99242.08
2023-04-01T14:40:21.318Z,99240.52
2023-04-01T14:42:49.394Z,99246.79
2023-04-01T14:45:36.753Z,99252.50
2023-04-01T14:48:05.587Z,99257.55
2023-04-01T14:51:03.635Z,99258.31
2023-04-01T14:53:36.378Z,99260.48
2023-04-01T14:56:05.092Z,99262.08
2023-04-01T14:58:43.672Z,99264.77
2023-04-01T15:01:20.136Z,99270.34
2023-04-01T15:03:53.010Z,99270.04
2023-04-01T15:06:35.816Z,99266.92
2023-04-01T15:09:09.225Z,99270.84
2023-04-01T15:11:57.559Z,99271.59
2023-04-01T15:14:41.860Z,99269.27
2023-04-01T15:17:13.203Z,99269.63
2023-04-01T15:19:47.488Z,99270.70
2023-04-01T15:22:46.844Z,99268.12
2023-04-01T15:25:21.176Z,99273.37
2023-04-01T15:27:55.867Z,99271.17
2023-04-01T15:30:38.585Z,99274.80
2023-04-01T15:33:10.590Z,99279.06
2023-04-01T15:35:45.313Z,99278.85
2023-04-01T15:38:52.467Z,99287.16
2023-04-01T15:41:23.324Z,99292.44
2023-04-01T15:43:53.340Z,99298.97
2023-04-01T15:46:31.763Z,99301.42
2023-04-01T15:49:09.070Z,99304.66
2023-04-01T15:51:37.509Z,99307.41
2023-04-01T15:54:10.795Z,99307.22
2023-04-01T15:56:48.106Z,99309.65
2023-04-01T15:59:20.882Z,99309.87
2023-04-01T16:01:59.926Z,99320.36
2023-04-01T16:04:53.819Z,99325.73
2023-04-01T16:07:28.186Z,99330.71
2023-04-01T16:10:07.521Z,99331.22
2023-04-01T16:13:13.959Z,99331.93
2023-04-01T16:16:05.537Z,99333.39
2023-04-01T16:18:36.288Z,99337.32
2023-04-01T16:21:17.745Z,99338.48
2023-04-01T16:23:58.065Z,99340.60
2023-04-01T16:26:59.884Z,99338.85
2023-04-01T16:29:41.259Z,99344.02
2023-04-01T16:32:22.765Z,99348.33
2023-04-01T16:35:06.237Z,99351.59
2023-04-01T16:37:59.643Z,99358.21
2023-04-01T16:40:43.582Z,99358.48
2023-04-01T16:43:32.082Z,99363.40
2023-04-01T16:46:22.321Z,99365.32
2023-04-01T16:49:01.975Z,99367.23
2023-04-01T16:51:38.955Z,99365.61
2023-04-01T16:54:14.972Z,99366.63
2023-04-01T16:56:47.438Z,99372.42
2023-04-01T16:59:17.621Z,99371.70
2023-04-01T17:02:07.339Z,99373.04
2023-04-01T17:04:50.208Z,99377.61
2023-04-01T17:07:30.039Z,99381.70
2023-04-01T17:10:20.720Z,99384.13
2023-04-01T17:13:08.830Z,99390.79
2023-04-01T17:15:54.378Z,99392.55
2023-04-01T17:18:25.872Z,99392.63
2023-04-01T17:21:14.397Z,99393.86
2023-04-01T17:24:07.306Z,99394.33
2023-04-01T17:27:05.713Z,99402.23
2023-04-01T17:29:54.906Z,99403.48
2023-04-01T17:32:42.838Z,99405.70
2023-04-01T17:35:27.514Z,99406.66
2023-04-01T17:38:18.164Z,99406.81
2023-04-01T17:41:07.337Z,99409.02
2023-04-01T17:43:44.435Z,99411.01
2023-04-01T17:46:51.122Z,99417.39
2023-04-01T17:49:25.771Z,99422.02
2023-04-01T17:52:21.011Z,99424.01
2023-04-01T17:54:54.047Z,99427.32
2023-04-01T17:57:42.334Z,99429.63
2023-04-01T18:00:13.668Z,99428.11
2023-04-01T18:03:11.076Z,99425.33
2023-04-01T18:06:00.212Z,99426.95
2023-04-01T18:08:44.676Z,99426.59
2023-04-01T18:11:24.006Z,99425.50
2023-04-01T18:13:56.255Z,99420.06
2023-04-01T18:16:29.904Z,99421.55
2023-04-01T18:19:05.409Z,99427.01
2023-04-01T18:21:38.860Z,99421.05
2023-04-01T18:24:27.271Z,99419.80
2023-04-01T18:27:01.468Z,99416.25
2023-04-01T18:29:39.308Z,99412.83
2023-04-01T18:32:14.173Z,99411.05
2023-04-01T18:34:45.084Z,99409.83
2023-04-01T18:37:28.026Z,99412.73
2023-04-01T18:40:17.253Z,99414.27
2023-04-01T18:42:54.541Z,99414.80
2023-04-01T18:45:24.429Z,99413.00
2023-04-01T18:47:56.288Z,99413.50
2023-04-01T18:50:43.695Z,99409.52
2023-04-01T18:53:30.111Z,99416.13
2023-04-01T18:56:07.963Z,99416.50
2023-04-01T18:58:39.321Z,99417.59
2023-04-01T19:01:39.067Z,99418.03
2023-04-01T19:04:17.089Z,99416.95
2023-04-01T19:06:48.663Z,99417.64
2023-04-01T19:09:18.730Z,99417.13
2023-04-01T19:11:58.763Z,99416.52
2023-04-01T19:14:47.096Z,99418.29
2023-04-01T19:17:17.556Z,99420.74
2023-04-01T19:19:57.490Z,99421.25
2023-04-01T19:22:32.249Z,99424.16
2023-04-01T19:25:00.423Z,99416.99
2023-04-01T19:27:29.058Z,99419.92
2023-04-01T19:30:00.043Z,99419.10
2023-04-01T19:32:31.298Z,99419.83
2023-04-01T19:35:11.827Z,99420.39
2023-04-01T19:37:51.743Z,99418.44
2023-04-01T19:40:32.615Z,99416.72
2023-04-01T19:43:21.745Z,99412.51
2023-04-01T19:46:13.253Z,99421.02
2023-04-01T19:49:05.992Z,99417.05
2023-04-01T19:51:52.790Z,99421.95
2023-04-01T19:54:21.694Z,99420.89
2023-04-01T19:57:08.830Z,99423.64
2023-04-01T19:59:37.066Z,99423.13
2023-04-01T20:02:25.152Z,99424.33
2023-04-01T20:04:55.655Z,99418.91
2023-04-01T20:07:33.561Z,99417.91
2023-04-01T20:10:06.776Z,99421.48
2023-04-01T20:12:41.760Z,99421.17
2023-04-01T20:15:33.919Z,99417.39
2023-04-01T20:18:10.396Z,99416.21
2023-04-01T20:20:41.537Z,99416.89
2023-04-01T20:23:39.380Z,99415.40
2023-04-01T20:26:11.723Z,99417.16
2023-04-01T20:28:44.834Z,99419.92
2023-04-01T20:31:25.842Z,99418.17
2023-04-01T20:34:13.440Z,99422.52
2023-04-01T20:36:41.597Z,99426.55
2023-04-01T20:39:19.166Z,99426.55
2023-04-01T20:41:53.753Z,99422.41
2023-04-01T20:44:40.842Z,99431.56
2023-04-01T20:47:14.724Z,99427.08
2023-04-01T20:50:09.116Z,99429.91
2023-04-01T20:52:42.350Z,99430.94
2023-04-01T20:55:13.557Z,99431.85
2023-04-01T20:57:45.541Z,99432.02
2023-04-01T21:00:32.882Z,99431.14
2023-04-01T21:03:07.058Z,99433.98
2023-04-01T21:05:37.959Z,99431.19
2023-04-01T21:08:32.249Z,99433.42
2023-04-01T21:11:16.969Z,99430.63
2023-04-01T21:13:58.000Z,99434.65
2023-04-01T21:16:36.259Z,99431.01
2023-04-01T21:19:06.291Z,99430.65
2023-04-01T21:21:53.133Z,99432.59
2023-04-01T21:24:39.995Z,99433.10
2023-04-01T21:27:23.416Z,99436.64
2023-04-01T21:29:54.558Z,99431.47
2023-04-01T21:32:34.969Z,99435.38
2023-04-01T21:35:21.487Z,99443.33
2023-04-01T21:38:02.191Z,99439.65
2023-04-01T21:40:49.662Z,99438.84
2023-04-01T21:43:24.718Z,99442.08
2023-04-01T21:45:57.587Z,99441.56
2023-04-01T21:48:38.375Z,99439.56
2023-04-01T21:51:25.307Z,99440.65
2023-04-01T21:54:06.223Z,99436.85
2023-04-01T21:56:56.481Z,99434.80
2023-04-01T21:59:42.989Z,99435.23
2023-04-01T22:02:26.484Z,99433.98
2023-04-01T22:04:55.498Z,99431.17
2023-04-01T22:07:43.767Z,99431.65
2023-04-01T22:10:11.952Z,99434.02
2023-04-01T22:12:52.528Z,99431.44
2023-04-01T22:15:23.681Z,99438.08
2023-04-01T22:17:56.606Z,99434.20
2023-04-01T22:20:30.340Z,99429.48
2023-04-01T22:22:58.656Z,99423.34
2023-04-01T22:25:29.101Z,99424.16
2023-04-01T22:28:21.057Z,99424.63
2023-04-01T22:30:53.537Z,99422.25
2023-04-01T22:33:22.500Z,99427.67
2023-04-01T22:36:03.271Z,99423.70
2023-04-01T22:38:32.307Z,99422.04
2023-04-01T22:41:08.461Z,99423.39
2023-04-01T22:43:40.765Z,99418.74
2023-04-01T22:46:18.190Z,99418.83
2023-04-01T22:48:53.080Z,99418.58
2023-04-01T22:51:41.467Z,99415.80
2023-04-01T22:54:28.275Z,99419.96
2023-04-01T22:56:57.715Z,99420.48
2023-04-01T22:59:46.132Z,99420.13
2023-04-01T23:02:22.052Z,99424.51
2023-04-01T23:04:53.785Z,99425.36
2023-04-01T23:07:25.173Z,99424.50
2023-04-01T23:09:53.262Z,99425.00
2023-04-01T23:12:21.884Z,99425.10
2023-04-01T23:14:57.419Z,99425.35
2023-04-01T23:17:28.506Z,99429.63
2023-04-01T23:19:56.816Z,99430.48
2023-04-01T23:22:31.155Z,99431.42
2023-04-01T23:25:18.191Z,99430.29
2023-04-01T23:27:47.969Z,99430.66
2023-04-01T23:30:34.957Z,99430.24
2023-04-01T23:33:16.907Z,99431.70
2023-04-01T23:35:49.447Z,99428.08
2023-04-01T23:38:18.224Z,99428.65
2023-04-01T23:40:47.565Z,99435.70
2023-04-01T23:43:23.659Z,99433.21
2023-04-01T23:45:52.029Z,99432.80
2023-04-01T23:48:21.465Z,99430.48
2023-04-01T23:50:49.499Z,99433.23
2023-04-01T23:53:27.828Z,99434.81
2023-04-01T23:55:56.097Z,99430.39
2023-04-01T23:58:27.311Z,99431.77
